createdAt,value
2022-12-19T00:01:35.247Z,62.58
2022-12-19T00:04:08.372Z,66.05
2022-12-19T00:06:37.288Z,62.42
2022-12-19T00:09:04.826Z,58.60
2022-12-19T00:11:32.382Z,60.05
2022-12-19T00:13:59.812Z,61.13
2022-12-19T00:16:29.496Z,69.53
2022-12-19T00:18:59.085Z,60.75
2022-12-19T00:21:29.228Z,57.35
2022-12-19T00:23:56.163Z,52.70
2022-12-19T00:26:26.998Z,58.97
2022-12-19T00:28:57.080Z,58.58
2022-12-19T00:31:24.590Z,65.18
2022-12-19T00:33:51.237Z,56.28
2022-12-19T00:36:23.663Z,57.30
2022-12-19T00:38:51.762Z,58.70
2022-12-19T00:41:35.659Z,53.25
2022-12-19T00:44:07.646Z,57.50
2022-12-19T00:46:35.331Z,53.40
2022-12-19T00:49:02.931Z,54.53
2022-12-19T00:51:33.757Z,53.75
2022-12-19T00:54:00.412Z,58.80
2022-12-19T00:56:31.688Z,53.55
2022-12-19T00:59:02.603Z,49.17
2022-12-19T01:01:38.414Z,60.25
2022-12-19T01:06:53.338Z,52.83
2022-12-19T01:09:21.761Z,48.13
2022-12-19T01:12:06.662Z,54.13
2022-12-19T01:14:33.226Z,50.88
2022-12-19T01:16:59.691Z,47.75
2022-12-19T01:19:27.283Z,47.95
2022-12-19T01:21:53.859Z,59.15
2022-12-19T01:24:21.011Z,53.03
2022-12-19T01:26:47.492Z,59.90
2022-12-19T01:29:14.053Z,51.95
2022-12-19T01:31:40.572Z,51.35
2022-12-19T01:34:07.155Z,50.13
2022-12-19T01:36:34.957Z,48.22
2022-12-19T01:39:06.473Z,49.70
2022-12-19T01:41:33.117Z,53.30
2022-12-19T01:44:05.880Z,52.22
2022-12-19T01:46:39.948Z,47.78
2022-12-19T01:49:15.368Z,50.17
2022-12-19T01:51:47.091Z,43.47
2022-12-19T01:54:21.947Z,50.13
2022-12-19T01:56:55.782Z,46.00
2022-12-19T01:59:32.339Z,52.13
2022-12-19T02:02:08.111Z,43.88
2022-12-19T02:04:35.117Z,48.50
2022-12-19T02:07:24.015Z,49.65
2022-12-19T02:09:57.192Z,45.33
2022-12-19T02:12:26.083Z,48.70
2022-12-19T02:14:56.168Z,51.45
2022-12-19T02:17:42.746Z,48.13
2022-12-19T02:20:49.245Z,52.42
2022-12-19T02:23:28.873Z,50.78
2022-12-19T02:26:04.380Z,49.45
2022-12-19T02:28:33.640Z,49.22
2022-12-19T02:31:26.406Z,49.15
2022-12-19T02:34:18.959Z,47.78
2022-12-19T02:37:02.166Z,48.97
2022-12-19T02:39:41.216Z,52.28
2022-12-19T02:42:11.421Z,51.13
2022-12-19T02:44:51.655Z,47.05
2022-12-19T02:47:20.251Z,50.97
2022-12-19T02:49:46.828Z,58.05
2022-12-19T02:52:19.148Z,56.72
2022-12-19T02:54:48.036Z,55.97
2022-12-19T02:57:28.511Z,52.35
2022-12-19T02:59:55.262Z,44.07
2022-12-19T03:02:57.898Z,53.28
2022-12-19T03:05:33.818Z,52.03
2022-12-19T03:08:06.122Z,54.65
2022-12-19T03:10:53.342Z,47.35
2022-12-19T03:13:37.527Z,61.28
2022-12-19T03:16:07.167Z,61.63
2022-12-19T03:18:34.132Z,58.13
2022-12-19T03:21:37.847Z,62.13
2022-12-19T03:24:06.892Z,57.60
2022-12-19T03:26:48.288Z,55.58
2022-12-19T03:31:46.411Z,68.20
2022-12-19T03:34:24.866Z,62.40
2022-12-19T03:36:59.605Z,53.75
2022-12-19T03:39:27.037Z,54.20
2022-12-19T03:42:13.401Z,56.47
2022-12-19T03:44:42.721Z,59.90
2022-12-19T03:47:22.485Z,61.25
2022-12-19T03:49:49.743Z,54.75
2022-12-19T03:52:26.787Z,67.47
2022-12-19T03:55:06.244Z,58.90
2022-12-19T03:58:05.687Z,66.60
2022-12-19T04:00:36.512Z,60.72
2022-12-19T04:03:04.568Z,57.88
2022-12-19T04:05:32.452Z,67.53
2022-12-19T04:08:04.767Z,54.92
2022-12-19T04:10:38.313Z,59.97
2022-12-19T04:13:12.072Z,58.28
2022-12-19T04:16:13.323Z,60.65
2022-12-19T04:18:45.312Z,59.35
2022-12-19T04:21:19.038Z,58.78
2022-12-19T04:23:52.788Z,55.80
2022-12-19T04:26:21.358Z,62.33
2022-12-19T04:28:56.327Z,59.22
2022-12-19T04:31:23.463Z,62.78
2022-12-19T04:33:50.051Z,58.00
2022-12-19T04:36:16.638Z,61.47
2022-12-19T04:38:43.138Z,58.67
2022-12-19T04:41:09.628Z,63.22
2022-12-19T04:43:36.160Z,62.17
2022-12-19T04:46:02.838Z,59.13
2022-12-19T04:48:29.371Z,54.30
2022-12-19T04:50:56.433Z,64.90
2022-12-19T04:53:24.511Z,60.70
2022-12-19T04:55:50.984Z,69.70
2022-12-19T04:58:21.909Z,56.97
2022-12-19T05:00:48.609Z,59.15
2022-12-19T05:03:15.078Z,76.53
2022-12-19T05:05:41.573Z,63.67
2022-12-19T05:08:08.766Z,63.85
2022-12-19T05:10:36.543Z,58.42
2022-12-19T05:13:03.092Z,58.17
2022-12-19T05:15:29.656Z,65.05
2022-12-19T05:17:57.711Z,62.75
2022-12-19T05:20:24.305Z,65.75
2022-12-19T05:22:50.782Z,54.15
2022-12-19T05:25:17.214Z,61.13
2022-12-19T05:27:43.680Z,54.90
2022-12-19T05:30:10.723Z,65.63
2022-12-19T05:32:37.246Z,62.92
2022-12-19T05:35:04.234Z,62.67
2022-12-19T05:37:30.655Z,59.20
2022-12-19T05:39:57.121Z,57.42
2022-12-19T05:42:26.231Z,60.15
2022-12-19T05:44:52.653Z,57.25
2022-12-19T05:47:22.201Z,59.42
2022-12-19T05:49:48.633Z,57.53
2022-12-19T05:52:15.043Z,62.22
2022-12-19T05:54:41.456Z,58.78
2022-12-19T05:57:07.904Z,56.63
2022-12-19T05:59:34.370Z,67.93
2022-12-19T06:02:00.909Z,62.25
2022-12-19T06:04:27.500Z,56.78
2022-12-19T06:06:54.335Z,59.22
2022-12-19T06:09:20.865Z,61.75
2022-12-19T06:11:47.999Z,62.30
2022-12-19T06:14:14.501Z,53.92
2022-12-19T06:16:41.062Z,57.58
2022-12-19T06:19:07.544Z,56.80
2022-12-19T06:21:34.104Z,58.60
2022-12-19T06:24:00.540Z,56.63
2022-12-19T06:26:27.324Z,58.38
2022-12-19T06:28:55.591Z,66.10
2022-12-19T06:31:24.827Z,52.15
2022-12-19T06:33:52.080Z,71.53
2022-12-19T06:36:25.679Z,62.53
2022-12-19T06:38:53.658Z,57.15
2022-12-19T06:41:39.042Z,56.80
2022-12-19T06:44:07.795Z,60.95
2022-12-19T06:46:35.402Z,51.92
2022-12-19T06:49:01.894Z,55.20
2022-12-19T06:51:28.808Z,55.35
2022-12-19T06:53:55.556Z,64.35
2022-12-19T06:56:22.665Z,60.72
2022-12-19T06:58:49.833Z,54.50
2022-12-19T07:01:21.113Z,60.03
2022-12-19T07:04:11.620Z,51.17
2022-12-19T07:06:51.639Z,54.78
2022-12-19T07:09:33.544Z,52.88
2022-12-19T07:12:01.711Z,52.80
2022-12-19T07:14:40.018Z,58.15
2022-12-19T07:17:12.904Z,59.05
2022-12-19T07:19:58.846Z,53.33
2022-12-19T07:23:57.453Z,56.42
2022-12-19T07:26:31.193Z,62.35
2022-12-19T07:31:46.710Z,49.38
2022-12-19T07:34:22.206Z,61.28
2022-12-19T07:37:01.165Z,56.53
2022-12-19T07:39:49.600Z,53.38
2022-12-19T07:42:32.818Z,51.72
2022-12-19T07:45:08.885Z,50.03
2022-12-19T07:47:41.162Z,50.95
2022-12-19T07:50:17.715Z,55.65
2022-12-19T07:52:44.690Z,60.35
2022-12-19T07:55:12.765Z,49.25
2022-12-19T07:57:41.138Z,55.85
2022-12-19T08:00:09.420Z,56.58
2022-12-19T08:02:36.653Z,50.22
2022-12-19T08:05:07.061Z,47.10
2022-12-19T08:07:34.354Z,54.60
2022-12-19T08:10:01.538Z,51.00
2022-12-19T08:12:28.327Z,48.17
2022-12-19T08:14:58.768Z,52.65
2022-12-19T08:17:26.583Z,49.93
2022-12-19T08:19:53.714Z,52.92
2022-12-19T08:22:20.648Z,51.58
2022-12-19T08:24:47.675Z,51.88
2022-12-19T08:27:16.999Z,50.75
2022-12-19T08:29:43.988Z,50.72
2022-12-19T08:32:18.775Z,47.55
2022-12-19T08:34:58.019Z,49.97
2022-12-19T08:37:33.849Z,53.55
2022-12-19T08:40:02.915Z,51.85
2022-12-19T08:42:35.450Z,49.15
2022-12-19T08:45:02.765Z,53.50
2022-12-19T08:47:29.741Z,51.53
2022-12-19T08:49:57.023Z,50.38
2022-12-19T08:52:23.968Z,50.58
2022-12-19T08:54:50.920Z,50.40
2022-12-19T08:57:17.707Z,54.95
2022-12-19T08:59:44.873Z,46.45
2022-12-19T09:02:18.715Z,58.50
2022-12-19T09:05:59.258Z,43.90
2022-12-19T09:07:32.538Z,50.63
2022-12-19T09:10:08.166Z,54.35
2022-12-19T09:12:35.520Z,60.15
2022-12-19T09:15:02.314Z,46.47
2022-12-19T09:17:29.210Z,56.17
2022-12-19T09:19:56.784Z,51.38
2022-12-19T09:22:29.848Z,49.35
2022-12-19T09:25:08.063Z,50.13
2022-12-19T09:27:53.708Z,53.25
2022-12-19T09:30:39.396Z,44.13
2022-12-19T09:33:07.474Z,47.33
2022-12-19T09:35:36.088Z,57.00
2022-12-19T09:38:03.776Z,54.67
2022-12-19T09:40:43.742Z,52.35
2022-12-19T09:43:33.994Z,48.97
2022-12-19T09:46:33.235Z,41.83
2022-12-19T09:49:10.528Z,49.47
2022-12-19T09:52:06.355Z,48.92
2022-12-19T09:54:41.793Z,49.63
2022-12-19T09:57:16.861Z,47.80
2022-12-19T10:00:02.642Z,54.22
2022-12-19T10:02:49.173Z,50.78
2022-12-19T10:05:49.612Z,41.95
2022-12-19T10:09:51.332Z,47.20
2022-12-19T10:12:40.546Z,48.40
2022-12-19T10:14:53.622Z,47.88
2022-12-19T10:17:28.395Z,46.05
2022-12-19T10:20:25.617Z,48.88
2022-12-19T10:22:58.282Z,57.47
2022-12-19T10:25:40.283Z,47.15
2022-12-19T10:28:19.728Z,49.70
2022-12-19T10:31:09.888Z,58.20
2022-12-19T10:34:15.141Z,47.72
2022-12-19T10:39:46.060Z,43.40
2022-12-19T10:42:28.490Z,49.05
2022-12-19T10:45:11.278Z,46.10
2022-12-19T10:47:38.712Z,41.42
2022-12-19T10:50:09.724Z,51.17
2022-12-19T10:53:11.909Z,52.65
2022-12-19T10:59:03.163Z,43.90
2022-12-19T11:01:41.773Z,40.25
2022-12-19T11:04:38.735Z,48.20
2022-12-19T11:07:27.947Z,40.83
2022-12-19T11:11:00.714Z,42.63
2022-12-19T11:17:11.732Z,45.05
2022-12-19T11:17:59.354Z,44.85
2022-12-19T11:29:37.272Z,41.45
2022-12-19T11:29:41.501Z,44.67
2022-12-19T11:30:35.541Z,43.33
2022-12-19T11:30:35.803Z,42.78
2022-12-19T11:33:28.340Z,41.55
2022-12-19T11:36:09.237Z,49.47
2022-12-19T11:38:54.495Z,44.45
2022-12-19T11:42:02.051Z,48.42
2022-12-19T11:45:07.703Z,48.97
2022-12-19T11:47:49.844Z,48.17
2022-12-19T11:50:28.283Z,41.17
2022-12-19T11:53:30.987Z,46.97
2022-12-19T11:56:22.094Z,43.55
2022-12-19T11:58:53.397Z,44.03
2022-12-19T12:01:41.950Z,45.03
2022-12-19T12:04:39.328Z,48.60
2022-12-19T12:07:16.923Z,55.75
2022-12-19T12:15:38.332Z,39.13
2022-12-19T12:23:05.699Z,42.58
2022-12-19T12:31:16.425Z,42.50
2022-12-19T12:31:18.382Z,46.88
2022-12-19T12:31:23.832Z,48.13
2022-12-19T12:31:49.895Z,46.28
2022-12-19T12:32:00.574Z,45.70
2022-12-19T12:35:56.478Z,45.00
2022-12-19T12:38:54.277Z,51.55
2022-12-19T12:41:54.456Z,47.20
2022-12-19T12:44:33.164Z,57.75
2022-12-19T12:47:17.043Z,63.33
2022-12-19T12:49:51.844Z,54.10
2022-12-19T12:52:23.888Z,58.95
2022-12-19T12:54:53.204Z,59.03
2022-12-19T12:57:28.953Z,54.53
2022-12-19T13:00:15.369Z,59.72
2022-12-19T13:02:45.935Z,61.00
2022-12-19T13:05:32.130Z,55.90
2022-12-19T13:07:59.007Z,59.75
2022-12-19T13:10:31.036Z,55.85
2022-12-19T13:13:01.779Z,56.78
2022-12-19T13:18:32.899Z,62.33
2022-12-19T13:21:01.607Z,60.05
2022-12-19T13:23:37.080Z,65.60
2022-12-19T13:26:04.724Z,71.88
2022-12-19T13:28:31.661Z,67.68
2022-12-19T13:31:18.600Z,66.88
2022-12-19T13:33:55.628Z,69.03
2022-12-19T13:39:57.595Z,64.40
2022-12-19T13:39:58.100Z,60.20
2022-12-19T13:43:09.571Z,67.63
2022-12-19T13:45:39.909Z,67.18
2022-12-19T13:48:16.419Z,45.28
2022-12-19T13:50:50.079Z,74.18
2022-12-19T13:53:19.168Z,64.43
2022-12-19T13:55:46.175Z,74.55
2022-12-19T13:58:29.285Z,76.13
2022-12-19T14:01:01.394Z,74.70
2022-12-19T14:03:39.039Z,80.43
2022-12-19T14:06:28.240Z,85.43
2022-12-19T14:11:23.189Z,79.47
2022-12-19T14:13:50.931Z,82.35
2022-12-19T14:15:40.880Z,82.80
2022-12-19T14:18:42.426Z,82.82
2022-12-19T14:22:10.608Z,79.40
2022-12-19T14:24:22.450Z,82.35
2022-12-19T14:28:25.853Z,77.28
2022-12-19T14:30:31.084Z,88.38
2022-12-19T14:33:43.933Z,89.63
2022-12-19T14:36:07.091Z,91.68
2022-12-19T14:39:24.039Z,89.32
2022-12-19T14:41:42.193Z,95.10
2022-12-19T14:52:34.525Z,93.03
2022-12-19T14:54:05.507Z,86.72
2022-12-19T14:54:16.484Z,84.90
2022-12-19T14:54:40.844Z,86.40
2022-12-19T14:56:09.697Z,95.63
2022-12-19T14:58:53.835Z,102.97
2022-12-19T15:01:28.499Z,99.72
2022-12-19T15:04:53.369Z,95.57
2022-12-19T15:07:11.818Z,97.18
2022-12-19T15:11:08.133Z,101.82
2022-12-19T15:14:55.304Z,99.43
2022-12-19T15:16:26.957Z,82.03
2022-12-19T15:19:00.530Z,99.95
2022-12-19T15:21:29.502Z,99.63
2022-12-19T15:23:56.158Z,100.90
2022-12-19T15:26:34.591Z,99.53
2022-12-19T15:29:02.961Z,96.88
2022-12-19T15:31:38.552Z,98.50
2022-12-19T15:34:48.211Z,101.18
2022-12-19T15:37:14.624Z,94.03
2022-12-19T15:39:41.682Z,89.18
2022-12-19T15:42:21.555Z,97.97
2022-12-19T15:44:49.034Z,101.13
2022-12-19T15:47:28.431Z,99.75
2022-12-19T15:49:55.140Z,91.55
2022-12-19T15:52:22.003Z,102.35
2022-12-19T15:54:50.565Z,87.22
2022-12-19T15:57:36.537Z,96.68
2022-12-19T16:00:12.910Z,98.28
2022-12-19T16:05:29.099Z,101.63
2022-12-19T16:07:58.853Z,106.47
2022-12-19T16:10:26.323Z,102.47
2022-12-19T16:12:55.649Z,88.78
2022-12-19T16:15:27.671Z,88.55
2022-12-19T16:17:55.537Z,98.10
2022-12-19T16:20:28.354Z,87.97
2022-12-19T16:22:57.903Z,96.47
2022-12-19T16:25:31.404Z,86.00
2022-12-19T16:27:59.452Z,95.95
2022-12-19T16:30:31.548Z,86.68
2022-12-19T16:32:58.494Z,99.82
2022-12-19T16:35:55.089Z,101.47
2022-12-19T16:38:14.461Z,101.90
2022-12-19T16:40:41.608Z,98.25
2022-12-19T16:43:15.736Z,107.60
2022-12-19T16:45:43.198Z,102.28
2022-12-19T16:48:21.984Z,101.57
2022-12-19T16:50:49.655Z,87.88
2022-12-19T16:53:17.213Z,97.65
2022-12-19T16:55:45.623Z,100.18
2022-12-19T16:58:18.916Z,92.15
2022-12-19T17:00:46.033Z,97.35
2022-12-19T17:03:41.159Z,102.35
2022-12-19T17:06:26.690Z,98.50
2022-12-19T17:08:53.312Z,95.68
2022-12-19T17:11:26.001Z,96.07
2022-12-19T17:14:08.532Z,92.90
2022-12-19T17:16:35.331Z,99.15
2022-12-19T17:19:02.753Z,97.03
2022-12-19T17:21:32.585Z,93.35
2022-12-19T17:23:59.126Z,95.75
2022-12-19T17:26:25.681Z,94.88
2022-12-19T17:28:53.141Z,103.78
2022-12-19T17:31:27.925Z,109.15
2022-12-19T17:33:57.670Z,103.45
2022-12-19T17:36:32.655Z,93.00
2022-12-19T17:39:01.622Z,107.53
2022-12-19T17:41:28.175Z,102.65
2022-12-19T17:43:54.668Z,100.60
2022-12-19T17:46:24.022Z,104.05
2022-12-19T17:48:52.810Z,112.00
2022-12-19T17:51:21.435Z,101.18
2022-12-19T17:53:49.774Z,108.13
2022-12-19T17:56:18.193Z,97.78
2022-12-19T17:58:44.731Z,101.65
2022-12-19T18:01:23.523Z,106.90
2022-12-19T18:03:52.266Z,104.30
2022-12-19T18:06:19.091Z,111.15
2022-12-19T18:08:45.580Z,109.80
2022-12-19T18:11:24.526Z,96.70
2022-12-19T18:13:51.732Z,114.45
2022-12-19T18:16:22.327Z,109.50
2022-12-19T18:18:49.062Z,83.20
2022-12-19T18:21:18.863Z,111.55
2022-12-19T18:23:45.644Z,110.65
2022-12-19T18:26:13.081Z,100.07
2022-12-19T18:28:40.398Z,108.18
2022-12-19T18:31:13.109Z,117.50
2022-12-19T18:33:41.986Z,111.40
2022-12-19T18:36:17.120Z,107.60
2022-12-19T18:38:43.609Z,115.95
2022-12-19T18:41:11.918Z,112.20
2022-12-19T18:43:38.345Z,115.70
2022-12-19T18:46:05.784Z,114.50
2022-12-19T18:48:36.866Z,109.25
2022-12-19T18:51:04.922Z,109.20
2022-12-19T18:53:35.207Z,103.55
2022-12-19T18:56:04.480Z,112.53
2022-12-19T18:58:31.304Z,110.40
2022-12-19T19:01:00.401Z,103.95
2022-12-19T19:03:33.678Z,107.57
2022-12-19T19:06:00.971Z,98.28
2022-12-19T19:08:30.775Z,102.35
2022-12-19T19:10:57.507Z,105.15
2022-12-19T19:13:25.704Z,109.90
2022-12-19T19:15:53.673Z,102.30
2022-12-19T19:18:30.001Z,101.93
2022-12-19T19:21:01.007Z,105.55
2022-12-19T19:28:26.526Z,94.15
2022-12-19T19:30:54.626Z,97.05
2022-12-19T19:33:25.782Z,100.03
2022-12-19T19:35:58.665Z,97.63
2022-12-19T19:38:25.193Z,102.80
2022-12-19T19:40:51.660Z,99.32
2022-12-19T19:43:18.176Z,103.65
2022-12-19T19:45:44.718Z,97.35
2022-12-19T19:48:11.166Z,94.68
2022-12-19T19:50:38.213Z,103.88
2022-12-19T19:53:05.163Z,92.07
2022-12-19T19:55:31.722Z,92.70
2022-12-19T19:57:58.345Z,96.57
2022-12-19T20:00:25.264Z,86.07
2022-12-19T20:02:53.016Z,91.75
2022-12-19T20:05:19.747Z,92.25
2022-12-19T20:07:46.363Z,84.68
2022-12-19T20:10:12.967Z,92.40
2022-12-19T20:12:39.547Z,85.97
2022-12-19T20:15:06.606Z,88.50
2022-12-19T20:17:33.120Z,88.60
2022-12-19T20:19:59.710Z,82.10
2022-12-19T20:22:26.332Z,88.90
2022-12-19T20:24:53.926Z,88.38
2022-12-19T20:27:20.566Z,86.65
2022-12-19T20:29:46.952Z,82.85
2022-12-19T20:32:15.004Z,84.28
2022-12-19T20:34:41.486Z,82.25
2022-12-19T20:37:08.027Z,75.68
2022-12-19T20:39:34.600Z,77.75
2022-12-19T20:42:01.130Z,75.43
2022-12-19T20:44:29.007Z,66.93
2022-12-19T20:46:55.574Z,71.55
2022-12-19T20:49:23.430Z,62.25
2022-12-19T20:51:50.048Z,68.97
2022-12-19T20:54:16.789Z,63.72
2022-12-19T20:56:43.231Z,64.72
2022-12-19T20:59:10.365Z,70.30
2022-12-19T21:01:37.606Z,68.47
2022-12-19T21:04:05.166Z,59.90
2022-12-19T21:06:31.901Z,60.47
2022-12-19T21:08:58.417Z,61.22
2022-12-19T21:11:26.538Z,56.70
2022-12-19T21:13:53.318Z,57.63
2022-12-19T21:16:22.106Z,61.20
2022-12-19T21:18:50.957Z,62.92
2022-12-19T21:21:20.898Z,55.88
2022-12-19T21:23:47.505Z,54.97
2022-12-19T21:26:14.126Z,51.28
2022-12-19T21:28:40.777Z,55.42
2022-12-19T21:31:20.023Z,51.35
2022-12-19T21:33:47.888Z,57.67
2022-12-19T21:36:20.341Z,50.83
2022-12-19T21:38:49.013Z,56.15
2022-12-19T21:41:19.340Z,58.05
2022-12-19T21:43:47.596Z,51.03
2022-12-19T21:46:16.036Z,55.72
2022-12-19T21:48:44.845Z,55.03
2022-12-19T21:51:12.626Z,51.70
2022-12-19T21:53:39.877Z,47.70
2022-12-19T21:56:15.326Z,53.88
2022-12-19T21:58:41.792Z,51.58
2022-12-19T22:01:11.186Z,53.10
2022-12-19T22:03:39.038Z,52.35
2022-12-19T22:06:08.775Z,57.80
2022-12-19T22:08:36.387Z,54.50
2022-12-19T22:11:03.044Z,55.97
2022-12-19T22:13:30.111Z,55.28
2022-12-19T22:16:01.734Z,49.55
2022-12-19T22:18:28.263Z,50.22
2022-12-19T22:21:01.075Z,53.58
2022-12-19T22:23:27.997Z,51.55
2022-12-19T22:26:07.024Z,52.92
2022-12-19T22:28:36.625Z,57.25
2022-12-19T22:31:04.287Z,52.83
2022-12-19T22:33:30.957Z,48.78
2022-12-19T22:35:57.426Z,54.95
2022-12-19T22:38:23.889Z,57.38
2022-12-19T22:40:50.458Z,51.80
2022-12-19T22:43:16.907Z,47.85
2022-12-19T22:45:43.389Z,54.60
2022-12-19T22:48:09.899Z,49.42
2022-12-19T22:50:36.749Z,60.88
2022-12-19T22:53:05.923Z,49.55
2022-12-19T22:55:34.725Z,53.60
2022-12-19T22:58:01.641Z,50.20
2022-12-19T23:00:28.143Z,52.72
2022-12-19T23:02:54.725Z,48.67
2022-12-19T23:05:21.356Z,50.42
2022-12-19T23:07:47.912Z,46.90
2022-12-19T23:10:14.383Z,49.03
2022-12-19T23:12:41.064Z,49.50
2022-12-19T23:15:07.958Z,47.85
2022-12-19T23:17:34.542Z,51.92
2022-12-19T23:20:01.055Z,48.35
2022-12-19T23:22:27.817Z,48.42
2022-12-19T23:24:54.338Z,46.72
2022-12-19T23:27:20.796Z,46.25
2022-12-19T23:29:49.301Z,52.58
2022-12-19T23:32:16.090Z,50.00
2022-12-19T23:34:42.778Z,52.83
2022-12-19T23:37:11.113Z,49.55
2022-12-19T23:39:38.242Z,46.97
2022-12-19T23:42:04.807Z,49.42
2022-12-19T23:44:31.405Z,52.08
2022-12-19T23:47:03.012Z,43.72
2022-12-19T23:49:30.246Z,47.78
2022-12-19T23:51:56.834Z,43.42
2022-12-19T23:54:23.320Z,44.65
2022-12-19T23:56:49.851Z,43.28
2022-12-19T23:59:16.333Z,44.58
